createdAt,value
2017-06-12T00:00:39.780Z,62.99
2017-06-12T00:01:40.358Z,63.12
2017-06-12T00:02:40.936Z,62.52
2017-06-12T00:03:41.513Z,62.81
2017-06-12T00:04:42.089Z,62.71
2017-06-12T00:05:42.666Z,62.23
2017-06-12T00:06:43.245Z,62.23
2017-06-12T00:07:43.835Z,62.90
2017-06-12T00:08:44.412Z,62.71
2017-06-12T00:09:44.991Z,61.94
2017-06-12T00:10:45.567Z,60.60
2017-06-12T00:11:46.145Z,59.64
2017-06-12T00:12:46.721Z,59.64
2017-06-12T00:13:47.298Z,60.31
2017-06-12T00:14:47.875Z,60.60
2017-06-12T00:15:48.452Z,60.02
2017-06-12T00:16:49.029Z,60.11
2017-06-12T00:17:49.607Z,59.54
2017-06-12T00:18:50.184Z,59.16
2017-06-12T00:19:50.760Z,59.64
2017-06-12T00:20:51.337Z,60.11
2017-06-12T00:21:51.915Z,59.54
2017-06-12T00:22:52.491Z,60.21
2017-06-12T00:23:53.067Z,60.11
2017-06-12T00:24:53.644Z,60.02
2017-06-12T00:25:54.224Z,59.83
2017-06-12T00:26:54.799Z,59.92
2017-06-12T00:27:55.376Z,60.02
2017-06-12T00:28:55.953Z,59.92
2017-06-12T00:29:56.529Z,59.54
2017-06-12T00:30:57.120Z,60.11
2017-06-12T00:31:57.696Z,60.02
2017-06-12T00:32:58.274Z,60.02
2017-06-12T00:33:58.865Z,60.11
2017-06-12T00:34:59.442Z,59.92
2017-06-12T00:36:00.022Z,59.92
2017-06-12T00:37:00.599Z,60.31
2017-06-12T00:38:01.179Z,60.31
2017-06-12T00:39:01.755Z,60.11
2017-06-12T00:40:02.335Z,60.11
2017-06-12T00:41:02.911Z,61.36
2017-06-12T00:42:03.499Z,60.78
2017-06-12T00:43:04.079Z,60.69
2017-06-12T00:44:04.656Z,61.17
2017-06-12T00:45:05.235Z,60.40
2017-06-12T00:46:05.812Z,61.17
2017-06-12T00:47:06.391Z,61.33
2017-06-12T00:48:06.968Z,62.01
2017-06-12T00:49:07.545Z,62.29
2017-06-12T00:50:08.122Z,62.01
2017-06-12T00:51:08.698Z,62.29
2017-06-12T00:52:09.288Z,62.68
2017-06-12T00:53:09.865Z,62.10
2017-06-12T00:54:10.444Z,62.77
2017-06-12T00:55:11.021Z,63.16
2017-06-12T00:56:11.600Z,62.96
2017-06-12T00:57:12.176Z,63.79
2017-06-12T00:58:12.755Z,64.85
2017-06-12T00:59:13.333Z,64.85
2017-06-12T01:00:13.909Z,64.95
2017-06-12T01:01:14.485Z,64.76
2017-06-12T01:02:15.062Z,64.47
2017-06-12T01:03:15.652Z,64.09
2017-06-12T01:04:16.229Z,63.70
2017-06-12T01:05:16.818Z,63.89
2017-06-12T01:06:17.396Z,63.03
2017-06-12T01:07:17.974Z,61.88
2017-06-12T01:08:18.552Z,62.84
2017-06-12T01:09:19.130Z,63.03
2017-06-12T01:10:19.709Z,62.36
2017-06-12T01:11:20.285Z,62.45
2017-06-12T01:12:20.865Z,62.16
2017-06-12T01:13:21.440Z,62.36
2017-06-12T01:14:22.018Z,62.07
2017-06-12T01:15:22.595Z,62.26
2017-06-12T01:16:23.183Z,62.26
2017-06-12T01:17:23.761Z,62.16
2017-06-12T01:18:24.339Z,62.36
2017-06-12T01:19:24.918Z,62.36
2017-06-12T01:20:25.508Z,62.65
2017-06-12T01:21:26.085Z,62.74
2017-06-12T01:22:26.663Z,63.09
2017-06-12T01:23:27.242Z,63.70
2017-06-12T01:24:27.819Z,63.67
2017-06-12T01:25:28.396Z,64.15
2017-06-12T01:26:28.974Z,64.05
2017-06-12T01:27:29.551Z,64.25
2017-06-12T01:28:30.129Z,64.66
2017-06-12T01:29:30.705Z,64.72
2017-06-12T01:30:31.283Z,64.85
2017-06-12T01:31:31.858Z,65.05
2017-06-12T01:32:32.448Z,65.30
2017-06-12T01:33:33.026Z,65.62
2017-06-12T01:34:33.602Z,65.59
2017-06-12T01:35:34.181Z,65.68
2017-06-12T01:36:34.757Z,66.06
2017-06-12T01:37:35.334Z,65.78
2017-06-12T01:38:35.910Z,65.11
2017-06-12T01:39:36.488Z,65.20
2017-06-12T01:40:37.063Z,65.20
2017-06-12T01:41:37.641Z,65.39
2017-06-12T01:42:38.217Z,65.78
2017-06-12T01:43:38.793Z,65.11
2017-06-12T01:44:39.370Z,65.68
2017-06-12T01:45:39.946Z,65.78
2017-06-12T01:46:40.523Z,65.68
2017-06-12T01:47:41.099Z,66.35
2017-06-12T01:48:41.675Z,65.97
2017-06-12T01:49:42.263Z,66.42
2017-06-12T01:50:42.843Z,66.51
2017-06-12T01:51:43.429Z,66.51
2017-06-12T01:52:44.006Z,66.89
2017-06-12T01:53:44.584Z,66.64
2017-06-12T01:54:45.161Z,66.89
2017-06-12T01:55:45.740Z,66.89
2017-06-12T01:56:46.315Z,66.71
2017-06-12T01:57:46.894Z,66.51
2017-06-12T01:58:47.469Z,66.22
2017-06-12T01:59:48.048Z,66.80
2017-06-12T02:00:48.624Z,66.61
2017-06-12T02:01:49.201Z,66.89
2017-06-12T02:02:49.777Z,67.47
2017-06-12T02:03:50.365Z,66.61
2017-06-12T02:04:50.944Z,66.61
2017-06-12T02:05:51.520Z,67.09
2017-06-12T02:06:52.098Z,67.57
2017-06-12T02:07:52.673Z,67.28
2017-06-12T02:08:53.251Z,67.76
2017-06-12T02:09:53.827Z,67.47
2017-06-12T02:10:54.404Z,67.85
2017-06-12T02:11:54.979Z,67.63
2017-06-12T02:12:55.556Z,67.85
2017-06-12T02:13:56.143Z,68.11
2017-06-12T02:14:56.719Z,68.21
2017-06-12T02:15:57.297Z,67.91
2017-06-12T02:16:57.875Z,67.82
2017-06-12T02:17:58.461Z,67.91
2017-06-12T02:18:59.037Z,67.63
2017-06-12T02:19:59.613Z,67.72
2017-06-12T02:21:00.188Z,68.40
2017-06-12T02:22:00.764Z,68.01
2017-06-12T02:23:01.340Z,67.82
2017-06-12T02:24:01.915Z,67.95
2017-06-12T02:25:02.491Z,68.30
2017-06-12T02:26:03.066Z,68.30
2017-06-12T02:27:03.641Z,68.59
2017-06-12T02:28:04.217Z,68.21
2017-06-12T02:29:04.793Z,68.59
2017-06-12T02:30:05.369Z,68.68
2017-06-12T02:31:05.945Z,68.68
2017-06-12T02:32:06.521Z,68.40
2017-06-12T02:33:07.096Z,68.59
2017-06-12T02:34:07.684Z,68.68
2017-06-12T02:35:08.262Z,68.87
2017-06-12T02:36:08.835Z,68.68
2017-06-12T02:37:09.412Z,68.01
2017-06-12T02:38:09.987Z,68.40
2017-06-12T02:39:10.564Z,68.87
2017-06-12T02:40:11.139Z,68.68
2017-06-12T02:41:11.716Z,68.49
2017-06-12T02:42:12.291Z,68.97
2017-06-12T02:43:12.866Z,69.45
2017-06-12T02:44:13.441Z,69.64
2017-06-12T02:45:14.017Z,69.70
2017-06-12T02:46:14.593Z,69.74
2017-06-12T02:47:15.168Z,70.31
2017-06-12T02:48:15.744Z,70.21
2017-06-12T02:49:16.319Z,69.89
2017-06-12T02:50:16.895Z,70.98
2017-06-12T02:51:17.470Z,70.41
2017-06-12T02:52:18.046Z,70.95
2017-06-12T02:53:18.622Z,70.85
2017-06-12T02:54:19.209Z,71.04
2017-06-12T02:55:19.785Z,71.14
2017-06-12T02:56:20.362Z,71.17
2017-06-12T02:57:20.937Z,71.27
2017-06-12T02:58:21.515Z,71.14
2017-06-12T02:59:22.090Z,71.52
2017-06-12T03:00:22.667Z,72.09
2017-06-12T03:01:23.242Z,72.09
2017-06-12T03:02:23.817Z,71.81
2017-06-12T03:03:24.393Z,71.81
2017-06-12T03:04:24.969Z,72.09
2017-06-12T03:05:25.545Z,72.38
2017-06-12T03:06:26.122Z,72.58
2017-06-12T03:07:26.698Z,72.67
2017-06-12T03:08:27.275Z,72.38
2017-06-12T03:09:27.852Z,71.62
2017-06-12T03:10:28.429Z,72.38
2017-06-12T03:11:29.007Z,72.58
2017-06-12T03:12:29.585Z,72.96
2017-06-12T03:13:30.162Z,73.44
2017-06-12T03:14:30.738Z,72.96
2017-06-12T03:15:31.316Z,73.05
2017-06-12T03:16:31.892Z,73.63
2017-06-12T03:17:32.469Z,73.30
2017-06-12T03:18:33.044Z,73.50
2017-06-12T03:19:33.621Z,73.59
2017-06-12T03:20:34.197Z,73.69
2017-06-12T03:21:34.774Z,73.69
2017-06-12T03:22:35.352Z,73.11
2017-06-12T03:23:35.944Z,73.91
2017-06-12T03:24:36.530Z,73.79
2017-06-12T03:25:37.111Z,74.16
2017-06-12T03:26:37.683Z,73.97
2017-06-12T03:27:38.260Z,74.26
2017-06-12T03:28:38.835Z,74.74
2017-06-12T03:29:39.412Z,74.65
2017-06-12T03:30:39.987Z,75.12
2017-06-12T03:31:40.566Z,74.93
2017-06-12T03:32:41.153Z,76.08
2017-06-12T03:33:41.729Z,76.46
2017-06-12T03:34:42.305Z,76.37
2017-06-12T03:35:42.881Z,76.65
2017-06-12T03:36:43.457Z,76.75
2017-06-12T03:37:44.033Z,77.23
2017-06-12T03:38:44.609Z,76.94
2017-06-12T03:39:45.185Z,77.61
2017-06-12T03:40:45.762Z,77.42
2017-06-12T03:41:46.340Z,77.23
2017-06-12T03:42:46.917Z,77.42
2017-06-12T03:43:47.496Z,77.23
2017-06-12T03:44:48.074Z,77.04
2017-06-12T03:45:48.651Z,77.04
2017-06-12T03:46:49.228Z,76.84
2017-06-12T03:47:49.806Z,76.75
2017-06-12T03:48:50.384Z,77.13
2017-06-12T03:49:50.963Z,77.70
2017-06-12T03:50:51.543Z,77.70
2017-06-12T03:51:52.132Z,78.38
2017-06-12T03:52:52.708Z,78.28
2017-06-12T03:53:53.298Z,78.28
2017-06-12T03:54:53.877Z,78.76
2017-06-12T03:55:54.454Z,78.76
2017-06-12T03:56:55.034Z,79.10
2017-06-12T03:57:55.610Z,78.09
2017-06-12T03:58:56.187Z,78.24
2017-06-12T03:59:56.764Z,78.19
2017-06-12T04:00:57.342Z,78.47
2017-06-12T04:01:57.920Z,78.57
2017-06-12T04:02:58.498Z,78.34
2017-06-12T04:03:59.077Z,78.38
2017-06-12T04:04:59.654Z,78.66
2017-06-12T04:06:00.243Z,78.19
2017-06-12T04:07:00.821Z,78.57
2017-06-12T04:08:01.399Z,78.72
2017-06-12T04:09:01.976Z,78.53
2017-06-12T04:10:02.565Z,79.20
2017-06-12T04:11:03.142Z,79.20
2017-06-12T04:12:03.720Z,79.29
2017-06-12T04:13:04.297Z,78.91
2017-06-12T04:14:04.874Z,78.91
2017-06-12T04:15:05.450Z,79.68
2017-06-12T04:16:06.039Z,79.49
2017-06-12T04:17:06.617Z,79.52
2017-06-12T04:18:07.195Z,79.62
2017-06-12T04:19:07.774Z,79.91
2017-06-12T04:20:08.354Z,80.06
2017-06-12T04:21:08.932Z,79.81
2017-06-12T04:22:09.511Z,80.19
2017-06-12T04:23:10.102Z,80.73
2017-06-12T04:24:10.692Z,80.73
2017-06-12T04:25:11.270Z,80.82
2017-06-12T04:26:11.851Z,80.77
2017-06-12T04:27:12.427Z,81.49
2017-06-12T04:28:13.005Z,81.44
2017-06-12T04:29:13.596Z,81.25
2017-06-12T04:30:14.178Z,81.15
2017-06-12T04:31:14.751Z,81.82
2017-06-12T04:32:15.331Z,81.54
2017-06-12T04:33:15.908Z,81.25
2017-06-12T04:34:16.489Z,81.15
2017-06-12T04:35:17.067Z,81.44
2017-06-12T04:36:17.644Z,80.96
2017-06-12T04:37:18.235Z,80.58
2017-06-12T04:38:18.812Z,80.87
2017-06-12T04:39:19.390Z,80.87
2017-06-12T04:40:19.971Z,81.34
2017-06-12T04:41:20.548Z,81.05
2017-06-12T04:42:21.127Z,80.38
2017-06-12T04:43:21.703Z,81.05
2017-06-12T04:44:22.281Z,81.15
2017-06-12T04:45:22.860Z,81.25
2017-06-12T04:46:23.451Z,81.34
2017-06-12T04:47:24.029Z,82.01
2017-06-12T04:48:24.609Z,81.25
2017-06-12T04:49:25.187Z,81.25
2017-06-12T04:50:25.767Z,81.82
2017-06-12T04:51:26.345Z,81.82
2017-06-12T04:52:26.924Z,81.82
2017-06-12T04:53:27.503Z,81.25
2017-06-12T04:54:28.082Z,81.15
2017-06-12T04:55:28.662Z,81.82
2017-06-12T04:56:29.240Z,81.34
2017-06-12T04:57:29.818Z,81.82
2017-06-12T04:58:30.398Z,81.92
2017-06-12T04:59:30.976Z,81.82
2017-06-12T05:00:31.557Z,81.15
2017-06-12T05:01:32.134Z,82.06
2017-06-12T05:02:32.713Z,81.86
2017-06-12T05:03:33.292Z,81.10
2017-06-12T05:04:33.871Z,81.96
2017-06-12T05:05:34.461Z,81.48
2017-06-12T05:06:35.042Z,81.96
2017-06-12T05:07:35.619Z,81.96
2017-06-12T05:08:36.198Z,81.67
2017-06-12T05:09:36.777Z,81.77
2017-06-12T05:10:37.368Z,81.67
2017-06-12T05:11:37.947Z,81.77
2017-06-12T05:12:38.524Z,82.34
2017-06-12T05:13:39.104Z,81.96
2017-06-12T05:14:39.683Z,81.96
2017-06-12T05:15:40.262Z,82.15
2017-06-12T05:16:40.841Z,82.34
2017-06-12T05:17:41.419Z,82.24
2017-06-12T05:18:41.998Z,83.01
2017-06-12T05:19:42.587Z,82.92
2017-06-12T05:20:43.165Z,82.43
2017-06-12T05:21:43.755Z,83.01
2017-06-12T05:22:44.333Z,82.15
2017-06-12T05:23:44.911Z,82.43
2017-06-12T05:24:45.490Z,82.73
2017-06-12T05:25:46.071Z,83.11
2017-06-12T05:26:46.648Z,83.11
2017-06-12T05:27:47.227Z,83.11
2017-06-12T05:28:47.805Z,81.96
2017-06-12T05:29:48.383Z,81.77
2017-06-12T05:30:48.964Z,82.00
2017-06-12T05:31:49.545Z,82.19
2017-06-12T05:32:50.122Z,81.52
2017-06-12T05:33:50.712Z,81.66
2017-06-12T05:34:51.303Z,81.43
2017-06-12T05:35:51.885Z,80.94
2017-06-12T05:36:52.463Z,81.13
2017-06-12T05:37:53.039Z,81.90
2017-06-12T05:38:53.618Z,81.71
2017-06-12T05:39:54.197Z,81.81
2017-06-12T05:40:54.777Z,81.81
2017-06-12T05:41:55.358Z,82.57
2017-06-12T05:42:55.937Z,82.09
2017-06-12T05:43:56.514Z,82.67
2017-06-12T05:44:57.105Z,81.71
2017-06-12T05:45:57.684Z,81.90
2017-06-12T05:46:58.274Z,81.52
2017-06-12T05:47:58.853Z,81.90
2017-06-12T05:48:59.432Z,81.81
2017-06-12T05:50:00.011Z,81.13
2017-06-12T05:51:00.602Z,81.62
2017-06-12T05:52:01.179Z,81.33
2017-06-12T05:53:01.758Z,81.18
2017-06-12T05:54:02.338Z,80.99
2017-06-12T05:55:02.917Z,80.70
2017-06-12T05:56:03.496Z,80.70
2017-06-12T05:57:04.074Z,80.99
2017-06-12T05:58:04.654Z,80.99
2017-06-12T05:59:05.234Z,81.90
2017-06-12T06:00:05.812Z,82.19
2017-06-12T06:01:06.392Z,82.00
2017-06-12T06:02:06.970Z,81.33
2017-06-12T06:03:07.548Z,81.81
2017-06-12T06:04:08.129Z,81.71
2017-06-12T06:05:08.708Z,81.33
2017-06-12T06:06:09.288Z,81.85
2017-06-12T06:07:09.866Z,82.04
2017-06-12T06:08:10.445Z,81.37
2017-06-12T06:09:11.025Z,80.99
2017-06-12T06:10:11.605Z,80.85
2017-06-12T06:11:12.186Z,81.43
2017-06-12T06:12:12.764Z,81.04
2017-06-12T06:13:13.354Z,81.52
2017-06-12T06:14:13.934Z,80.22
2017-06-12T06:15:14.513Z,80.60
2017-06-12T06:16:15.090Z,80.51
2017-06-12T06:17:15.672Z,81.27
2017-06-12T06:18:16.250Z,81.37
2017-06-12T06:19:16.829Z,81.75
2017-06-12T06:20:17.407Z,80.51
2017-06-12T06:21:17.986Z,79.83
2017-06-12T06:22:18.572Z,78.97
2017-06-12T06:23:19.146Z,78.88
2017-06-12T06:24:19.738Z,79.07
2017-06-12T06:25:20.317Z,78.11
2017-06-12T06:26:20.898Z,77.63
2017-06-12T06:27:21.476Z,78.11
2017-06-12T06:28:22.055Z,76.77
2017-06-12T06:29:22.635Z,77.25
2017-06-12T06:30:23.216Z,77.25
2017-06-12T06:31:23.806Z,77.44
2017-06-12T06:32:24.386Z,78.02
2017-06-12T06:33:24.969Z,76.67
2017-06-12T06:34:25.545Z,78.11
2017-06-12T06:35:26.123Z,76.86
2017-06-12T06:36:26.702Z,76.25
2017-06-12T06:37:27.281Z,76.39
2017-06-12T06:38:27.862Z,75.90
2017-06-12T06:39:28.451Z,76.00
2017-06-12T06:40:29.031Z,76.29
2017-06-12T06:41:29.612Z,76.52
2017-06-12T06:42:30.190Z,76.29
2017-06-12T06:43:30.773Z,76.14
2017-06-12T06:44:31.360Z,75.75
2017-06-12T06:45:31.938Z,75.85
2017-06-12T06:46:32.518Z,76.04
2017-06-12T06:47:33.109Z,77.34
2017-06-12T06:48:33.688Z,77.53
2017-06-12T06:49:34.267Z,76.57
2017-06-12T06:50:34.846Z,76.67
2017-06-12T06:51:35.427Z,77.19
2017-06-12T06:52:36.007Z,76.67
2017-06-12T06:53:36.586Z,76.48
2017-06-12T06:54:37.165Z,77.34
2017-06-12T06:55:37.746Z,76.48
2017-06-12T06:56:38.325Z,76.42
2017-06-12T06:57:38.906Z,75.46
2017-06-12T06:58:39.498Z,75.46
2017-06-12T06:59:40.077Z,75.37
2017-06-12T07:00:40.656Z,75.89
2017-06-12T07:01:41.235Z,75.46
2017-06-12T07:02:41.815Z,75.37
2017-06-12T07:03:42.395Z,75.46
2017-06-12T07:04:42.974Z,75.89
2017-06-12T07:05:43.554Z,75.31
2017-06-12T07:06:44.133Z,75.37
2017-06-12T07:07:44.713Z,76.04
2017-06-12T07:08:45.294Z,76.71
2017-06-12T07:09:45.883Z,76.62
2017-06-12T07:10:46.464Z,76.32
2017-06-12T07:11:47.044Z,76.42
2017-06-12T07:12:47.623Z,76.32
2017-06-12T07:13:48.203Z,76.04
2017-06-12T07:14:48.780Z,75.75
2017-06-12T07:15:49.362Z,76.23
2017-06-12T07:16:49.951Z,75.89
2017-06-12T07:17:50.530Z,75.46
2017-06-12T07:18:51.110Z,76.52
2017-06-12T07:19:51.690Z,76.90
2017-06-12T07:20:52.270Z,76.81
2017-06-12T07:21:52.860Z,76.32
2017-06-12T07:22:53.442Z,77.29
2017-06-12T07:23:54.019Z,76.71
2017-06-12T07:24:54.598Z,76.52
2017-06-12T07:25:55.190Z,75.75
2017-06-12T07:26:55.768Z,75.46
2017-06-12T07:27:56.348Z,76.04
2017-06-12T07:28:56.927Z,76.42
2017-06-12T07:29:57.507Z,75.85
2017-06-12T07:30:58.088Z,76.32
2017-06-12T07:31:58.667Z,76.29
2017-06-12T07:32:59.246Z,76.62
2017-06-12T07:33:59.838Z,76.23
2017-06-12T07:35:00.417Z,75.46
2017-06-12T07:36:00.996Z,75.75
2017-06-12T07:37:01.576Z,76.46
2017-06-12T07:38:02.155Z,75.08
2017-06-12T07:39:02.736Z,75.75
2017-06-12T07:40:03.314Z,76.14
2017-06-12T07:41:03.895Z,76.42
2017-06-12T07:42:04.474Z,76.62
2017-06-12T07:43:05.054Z,74.98
2017-06-12T07:44:05.637Z,74.51
2017-06-12T07:45:06.214Z,74.12
2017-06-12T07:46:06.794Z,74.89
2017-06-12T07:47:07.373Z,75.37
2017-06-12T07:48:07.952Z,74.98
2017-06-12T07:49:08.532Z,74.51
2017-06-12T07:50:09.113Z,75.08
2017-06-12T07:51:09.691Z,74.51
2017-06-12T07:52:10.270Z,74.98
2017-06-12T07:53:10.849Z,75.27
2017-06-12T07:54:11.429Z,74.12
2017-06-12T07:55:12.010Z,74.44
2017-06-12T07:56:12.590Z,74.44
2017-06-12T07:57:13.171Z,74.64
2017-06-12T07:58:13.749Z,73.20
2017-06-12T07:59:14.332Z,71.86
2017-06-12T08:00:14.912Z,70.84
2017-06-12T08:01:15.492Z,70.84
2017-06-12T08:02:16.072Z,70.45
2017-06-12T08:03:16.652Z,69.87
2017-06-12T08:04:17.244Z,69.20
2017-06-12T08:05:17.836Z,70.99
2017-06-12T08:06:18.416Z,71.12
2017-06-12T08:07:19.007Z,71.12
2017-06-12T08:08:19.587Z,69.84
2017-06-12T08:09:20.167Z,70.99
2017-06-12T08:10:20.745Z,71.57
2017-06-12T08:11:21.327Z,71.76
2017-06-12T08:12:21.906Z,72.33
2017-06-12T08:13:22.487Z,72.81
2017-06-12T08:14:23.066Z,73.58
2017-06-12T08:15:23.645Z,73.87
2017-06-12T08:16:24.227Z,74.12
2017-06-12T08:17:24.807Z,74.98
2017-06-12T08:18:25.388Z,75.18
2017-06-12T08:19:25.968Z,76.14
2017-06-12T08:20:26.549Z,76.14
2017-06-12T08:21:27.128Z,76.14
2017-06-12T08:22:27.708Z,75.75
2017-06-12T08:23:28.302Z,75.56
2017-06-12T08:24:28.879Z,75.46
2017-06-12T08:25:29.459Z,75.56
2017-06-12T08:26:30.039Z,74.89
2017-06-12T08:27:30.619Z,75.18
2017-06-12T08:28:31.199Z,74.98
2017-06-12T08:29:31.781Z,75.75
2017-06-12T08:30:32.373Z,75.85
2017-06-12T08:31:32.954Z,75.75
2017-06-12T08:32:33.538Z,75.18
2017-06-12T08:33:34.116Z,74.35
2017-06-12T08:34:34.697Z,73.81
2017-06-12T08:35:35.279Z,72.18
2017-06-12T08:36:35.858Z,71.41
2017-06-12T08:37:36.438Z,70.29
2017-06-12T08:38:37.019Z,69.43
2017-06-12T08:39:37.599Z,68.79
2017-06-12T08:40:38.180Z,68.57
2017-06-12T08:41:38.759Z,68.44
2017-06-12T08:42:39.342Z,68.63
2017-06-12T08:43:39.918Z,68.37
2017-06-12T08:44:40.498Z,68.05
2017-06-12T08:45:41.079Z,68.82
2017-06-12T08:46:41.658Z,68.53
2017-06-12T08:47:42.239Z,68.34
2017-06-12T08:48:42.818Z,67.96
2017-06-12T08:49:43.399Z,68.34
2017-06-12T08:50:43.980Z,68.34
2017-06-12T08:51:44.559Z,68.73
2017-06-12T08:52:45.139Z,68.34
2017-06-12T08:53:45.719Z,68.91
2017-06-12T08:54:46.298Z,68.24
2017-06-12T08:55:46.879Z,69.17
2017-06-12T08:56:47.459Z,69.07
2017-06-12T08:57:48.040Z,68.69
2017-06-12T08:58:48.619Z,68.02
2017-06-12T08:59:49.198Z,68.69
2017-06-12T09:00:49.779Z,68.88
2017-06-12T09:01:50.359Z,68.50
2017-06-12T09:02:50.943Z,68.12
2017-06-12T09:03:51.520Z,68.02
2017-06-12T09:04:52.100Z,68.02
2017-06-12T09:05:52.681Z,68.21
2017-06-12T09:06:53.261Z,68.21
2017-06-12T09:07:53.842Z,68.79
2017-06-12T09:08:54.422Z,68.79
2017-06-12T09:09:55.000Z,68.69
2017-06-12T09:10:55.582Z,68.59
2017-06-12T09:11:56.173Z,68.66
2017-06-12T09:12:56.753Z,67.92
2017-06-12T09:13:57.343Z,67.92
2017-06-12T09:14:57.923Z,66.96
2017-06-12T09:15:58.519Z,67.25
2017-06-12T09:16:59.093Z,67.35
2017-06-12T09:17:59.673Z,66.58
2017-06-12T09:19:00.253Z,66.86
2017-06-12T09:20:00.835Z,67.09
2017-06-12T09:21:01.415Z,67.19
2017-06-12T09:22:01.995Z,66.42
2017-06-12T09:23:02.575Z,66.61
2017-06-12T09:24:03.167Z,66.23
2017-06-12T09:25:03.747Z,66.29
2017-06-12T09:26:04.328Z,66.33
2017-06-12T09:27:04.907Z,66.29
2017-06-12T09:28:05.489Z,66.52
2017-06-12T09:29:06.069Z,66.90
2017-06-12T09:30:06.648Z,67.09
2017-06-12T09:31:07.230Z,66.77
2017-06-12T09:32:07.821Z,66.61
2017-06-12T09:33:08.402Z,67.29
2017-06-12T09:34:08.992Z,67.47
2017-06-12T09:35:09.573Z,68.24
2017-06-12T09:36:10.153Z,68.34
2017-06-12T09:37:10.733Z,68.44
2017-06-12T09:38:11.312Z,68.73
2017-06-12T09:39:11.895Z,68.24
2017-06-12T09:40:12.472Z,68.91
2017-06-12T09:41:13.052Z,68.63
2017-06-12T09:42:13.633Z,68.63
2017-06-12T09:43:14.213Z,68.73
2017-06-12T09:44:14.794Z,68.30
2017-06-12T09:45:15.371Z,68.02
2017-06-12T09:46:15.951Z,68.44
2017-06-12T09:47:16.532Z,67.38
2017-06-12T09:48:17.115Z,67.09
2017-06-12T09:49:17.693Z,66.33
2017-06-12T09:50:18.273Z,67.06
2017-06-12T09:51:18.853Z,66.39
2017-06-12T09:52:19.434Z,66.96
2017-06-12T09:53:20.014Z,66.96
2017-06-12T09:54:20.594Z,67.63
2017-06-12T09:55:21.173Z,68.02
2017-06-12T09:56:21.752Z,68.21
2017-06-12T09:57:22.334Z,67.83
2017-06-12T09:58:22.914Z,67.38
2017-06-12T09:59:23.494Z,67.73
2017-06-12T10:00:24.073Z,68.40
2017-06-12T10:01:24.653Z,68.12
2017-06-12T10:02:25.234Z,67.54
2017-06-12T10:03:25.815Z,67.35
2017-06-12T10:04:26.396Z,67.06
2017-06-12T10:05:26.977Z,67.47
2017-06-12T10:06:27.558Z,66.77
2017-06-12T10:07:28.143Z,66.80
2017-06-12T10:08:28.721Z,66.23
2017-06-12T10:09:29.314Z,66.64
2017-06-12T10:10:29.895Z,65.49
2017-06-12T10:11:30.476Z,65.59
2017-06-12T10:12:31.057Z,65.30
2017-06-12T10:13:31.640Z,65.30
2017-06-12T10:14:32.220Z,64.72
2017-06-12T10:15:32.801Z,65.11
2017-06-12T10:16:33.380Z,65.14
2017-06-12T10:17:33.960Z,64.28
2017-06-12T10:18:34.542Z,64.15
2017-06-12T10:19:35.122Z,64.79
2017-06-12T10:20:35.704Z,65.56
2017-06-12T10:21:36.284Z,64.98
2017-06-12T10:22:36.877Z,64.72
2017-06-12T10:23:37.457Z,64.53
2017-06-12T10:24:38.039Z,63.57
2017-06-12T10:25:38.621Z,63.76
2017-06-12T10:26:39.201Z,64.05
2017-06-12T10:27:39.781Z,63.76
2017-06-12T10:28:40.362Z,63.09
2017-06-12T10:29:40.943Z,63.19
2017-06-12T10:30:41.523Z,63.67
2017-06-12T10:31:42.103Z,63.57
2017-06-12T10:32:42.682Z,63.09
2017-06-12T10:33:43.263Z,63.86
2017-06-12T10:34:43.845Z,63.67
2017-06-12T10:35:44.425Z,63.96
2017-06-12T10:36:45.006Z,64.43
2017-06-12T10:37:45.585Z,64.43
2017-06-12T10:38:46.166Z,63.48
2017-06-12T10:39:46.748Z,63.64
2017-06-12T10:40:47.327Z,64.22
2017-06-12T10:41:47.919Z,64.02
2017-06-12T10:42:48.501Z,64.22
2017-06-12T10:43:49.081Z,64.79
2017-06-12T10:44:49.659Z,65.23
2017-06-12T10:45:50.240Z,65.36
2017-06-12T10:46:50.819Z,65.17
2017-06-12T10:47:51.402Z,65.84
2017-06-12T10:48:51.981Z,65.23
2017-06-12T10:49:52.562Z,65.17
2017-06-12T10:50:53.141Z,64.89
2017-06-12T10:51:53.721Z,65.27
2017-06-12T10:52:54.312Z,65.27
2017-06-12T10:53:54.891Z,65.14
2017-06-12T10:54:55.471Z,65.52
2017-06-12T10:55:56.053Z,65.56
2017-06-12T10:56:56.643Z,65.17
2017-06-12T10:57:57.228Z,64.69
2017-06-12T10:58:57.806Z,65.56
2017-06-12T10:59:58.387Z,64.98
2017-06-12T11:00:58.967Z,64.92
2017-06-12T11:01:59.549Z,64.40
2017-06-12T11:03:00.129Z,64.31
2017-06-12T11:04:00.711Z,64.40
2017-06-12T11:05:01.292Z,64.92
2017-06-12T11:06:01.872Z,64.40
2017-06-12T11:07:02.455Z,63.73
2017-06-12T11:08:03.035Z,64.15
2017-06-12T11:09:03.616Z,63.19
2017-06-12T11:10:04.196Z,63.19
2017-06-12T11:11:04.778Z,63.12
2017-06-12T11:12:05.360Z,63.09
2017-06-12T11:13:05.940Z,63.19
2017-06-12T11:14:06.520Z,62.13
2017-06-12T11:15:07.104Z,61.55
2017-06-12T11:16:07.684Z,62.71
2017-06-12T11:17:08.265Z,62.42
2017-06-12T11:18:08.847Z,62.42
2017-06-12T11:19:09.435Z,62.52
2017-06-12T11:20:10.016Z,64.50
2017-06-12T11:21:10.599Z,65.11
2017-06-12T11:22:11.177Z,64.12
2017-06-12T11:23:11.758Z,64.22
2017-06-12T11:24:12.350Z,65.46
2017-06-12T11:25:12.940Z,65.46
2017-06-12T11:26:13.520Z,65.23
2017-06-12T11:27:14.102Z,65.14
2017-06-12T11:28:14.682Z,66.10
2017-06-12T11:29:15.263Z,65.52
2017-06-12T11:30:15.843Z,66.00
2017-06-12T11:31:16.421Z,66.96
2017-06-12T11:32:17.004Z,66.96
2017-06-12T11:33:17.585Z,66.67
2017-06-12T11:34:18.168Z,66.86
2017-06-12T11:35:18.744Z,66.67
2017-06-12T11:36:19.325Z,66.86
2017-06-12T11:37:19.907Z,66.52
2017-06-12T11:38:20.491Z,66.80
2017-06-12T11:39:21.067Z,65.69
2017-06-12T11:40:21.648Z,64.66
2017-06-12T11:41:22.227Z,64.66
2017-06-12T11:42:22.810Z,64.12
2017-06-12T11:43:23.391Z,63.79
2017-06-12T11:44:23.982Z,63.60
2017-06-12T11:45:24.563Z,63.38
2017-06-12T11:46:25.143Z,64.43
2017-06-12T11:47:25.722Z,64.34
2017-06-12T11:48:26.302Z,64.34
2017-06-12T11:49:26.882Z,64.72
2017-06-12T11:50:27.464Z,65.88
2017-06-12T11:51:28.043Z,65.65
2017-06-12T11:52:28.623Z,66.80
2017-06-12T11:53:29.203Z,66.52
2017-06-12T11:54:29.783Z,66.13
2017-06-12T11:55:30.364Z,66.13
2017-06-12T11:56:30.944Z,66.13
2017-06-12T11:57:31.524Z,66.13
2017-06-12T11:58:32.104Z,66.67
2017-06-12T11:59:32.683Z,66.80
2017-06-12T12:00:33.265Z,66.61
2017-06-12T12:01:33.858Z,65.17
2017-06-12T12:02:34.436Z,65.75
2017-06-12T12:03:35.017Z,65.52
2017-06-12T12:04:35.611Z,65.33
2017-06-12T12:05:36.190Z,65.05
2017-06-12T12:06:36.772Z,65.33
2017-06-12T12:07:37.351Z,65.14
2017-06-12T12:08:37.930Z,65.91
2017-06-12T12:09:38.512Z,66.39
2017-06-12T12:10:39.093Z,66.39
2017-06-12T12:11:39.685Z,66.96
2017-06-12T12:12:40.265Z,66.86
2017-06-12T12:13:40.846Z,66.64
2017-06-12T12:14:41.425Z,66.55
2017-06-12T12:15:42.004Z,66.74
2017-06-12T12:16:42.583Z,66.93
2017-06-12T12:17:43.165Z,67.50
2017-06-12T12:18:43.744Z,67.35
2017-06-12T12:19:44.325Z,67.54
2017-06-12T12:20:44.904Z,66.77
2017-06-12T12:21:45.483Z,67.06
2017-06-12T12:22:46.076Z,66.39
2017-06-12T12:23:46.656Z,66.29
2017-06-12T12:24:47.240Z,66.29
2017-06-12T12:25:47.819Z,65.56
2017-06-12T12:26:48.399Z,65.84
2017-06-12T12:27:48.980Z,65.17
2017-06-12T12:28:49.573Z,64.59
2017-06-12T12:29:50.153Z,64.59
2017-06-12T12:30:50.734Z,64.82
2017-06-12T12:31:51.317Z,64.34
2017-06-12T12:32:51.897Z,64.63
2017-06-12T12:33:52.490Z,64.53
2017-06-12T12:34:53.072Z,63.60
2017-06-12T12:35:53.652Z,61.49
2017-06-12T12:36:54.234Z,61.58
2017-06-12T12:37:54.825Z,61.11
2017-06-12T12:38:55.418Z,61.55
2017-06-12T12:39:55.997Z,61.46
2017-06-12T12:40:56.578Z,61.55
2017-06-12T12:41:57.161Z,61.46
2017-06-12T12:42:57.741Z,61.65
2017-06-12T12:43:58.322Z,61.65
2017-06-12T12:44:58.903Z,61.46
2017-06-12T12:45:59.485Z,61.75
2017-06-12T12:47:00.067Z,61.36
2017-06-12T12:48:00.660Z,60.98
2017-06-12T12:49:01.241Z,61.08
2017-06-12T12:50:01.834Z,61.52
2017-06-12T12:51:02.417Z,61.46
2017-06-12T12:52:02.997Z,61.36
2017-06-12T12:53:03.578Z,61.24
2017-06-12T12:54:04.160Z,61.24
2017-06-12T12:55:04.741Z,61.17
2017-06-12T12:56:05.323Z,61.27
2017-06-12T12:57:05.904Z,60.82
2017-06-12T12:58:06.484Z,60.14
2017-06-12T12:59:07.068Z,59.86
2017-06-12T13:00:07.647Z,59.38